Archival Weather

Snohomish County (Paine Fld)

Everett, Washington (KPAE)

Report from: Monday, November 20, 2023 12:53 PM PST
Current time: Sunday, February 25, 2024 1:46 PM PST

Current weather – Weather history – Daily summaries
Weather forecast

Temperature8.9°C (48.0°F)
Wind chill7.9°C (46.2°F)
Dew point2.2°C (36.0°F)
Winds 4 kts (2.1 m/s, 4.6 mph) North (350°)
Visibility10 mi. (16.1 km)
Clouds Sky clear
Altimeter30.45 in.Hg (1031 mB)
Relative humidity63 %
Density altitude-1,239 ft. (-378 m)
Sea-level pressure103.2 kPa (1032 mB, 30.46 in.Hg)
Remarks Automated weather observing station with precipitation discriminator
Pressure falling more quickly
Flight conditions Visual Meteorological Conditions
Raw dataKPAE 202053Z 35004KT 10SM CLR 09/02 A3045 RMK AO2 SLP315 T00890022 58018
An error has occurred. This application may no longer respond until reloaded. Reload 🗙